KEOK/EOK METAR and TAF weather

Enter ICAO airport designator
Station Type Date Time Source
KEOK METAR 2021/01/16 03:15 UTC NOAA

KEOK 160315Z AUTO 32006KT 10SM OVC075 M00/M00 A2967 RMK AO2


Station Type Date Time Source
KEOK Decoded METAR 2021/01/16 03:15 UTC NOAA

Keokuk Municipal, IA, United States (KEOK) 40-28N 091-26W
Jan 15, 2021 - 10:15 PM EST / 2021.01.16 0315 UTC
Wind: from the NW (320 degrees) at 7 MPH (6 KT):0
Visibility: 10 mile(s):0
Sky conditions: overcast
Temperature: 32 F (0 C)
Windchill: 24 F (-4 C):1
Dew Point: 32 F (0 C)
Relative Humidity: 100%
Pressure (altimeter): 29.67 in. Hg (1004 hPa)
ob: KEOK 160315Z AUTO 32006KT 10SM OVC075 M00/M00 A2967 RMK AO2
cycle: 3

Station Type Date Time Source
KEOK TAF UTC NOAA

Error!

Example: see airport list